sensor_id;sensor_type;location;lat;lon;timestamp;temperature;humidity
58582;DHT22;44361;51.476;5.700;2023-11-19T00:00:16;12.70;99.90
58582;DHT22;44361;51.476;5.700;2023-11-19T00:02:42;12.80;99.90
58582;DHT22;44361;51.476;5.700;2023-11-19T00:05:08;12.80;99.90
58582;DHT22;44361;51.476;5.700;2023-11-19T00:07:35;12.80;99.90
58582;DHT22;44361;51.476;5.700;2023-11-19T00:10:02;12.80;99.90
58582;DHT22;44361;51.476;5.700;2023-11-19T00:12:32;12.80;99.90
58582;DHT22;44361;51.476;5.700;2023-11-19T00:14:57;12.80;99.90
58582;DHT22;44361;51.476;5.700;2023-11-19T00:17:23;12.80;99.90
58582;DHT22;44361;51.476;5.700;2023-11-19T00:19:49;12.80;99.90
58582;DHT22;44361;51.476;5.700;2023-11-19T00:22:16;12.90;99.90
58582;DHT22;44361;51.476;5.700;2023-11-19T00:24:42;12.80;99.90
58582;DHT22;44361;51.476;5.700;2023-11-19T00:27:08;12.90;99.90
58582;DHT22;44361;51.476;5.700;2023-11-19T00:29:33;12.90;99.90
58582;DHT22;44361;51.476;5.700;2023-11-19T00:31:59;12.80;99.90
58582;DHT22;44361;51.476;5.700;2023-11-19T00:34:24;12.90;99.90
58582;DHT22;44361;51.476;5.700;2023-11-19T00:36:50;12.90;99.90
58582;DHT22;44361;51.476;5.700;2023-11-19T00:39:15;12.90;99.90
58582;DHT22;44361;51.476;5.700;2023-11-19T00:41:41;12.90;99.90
58582;DHT22;44361;51.476;5.700;2023-11-19T00:44:07;12.90;99.90
58582;DHT22;44361;51.476;5.700;2023-11-19T00:46:32;12.90;99.90
58582;DHT22;44361;51.476;5.700;2023-11-19T00:48:58;12.90;99.90
58582;DHT22;44361;51.476;5.700;2023-11-19T00:51:25;12.90;99.90
58582;DHT22;44361;51.476;5.700;2023-11-19T00:53:52;12.90;99.90
58582;DHT22;44361;51.476;5.700;2023-11-19T00:56:18;12.90;99.90
58582;DHT22;44361;51.476;5.700;2023-11-19T00:58:45;12.90;99.90
58582;DHT22;44361;51.476;5.700;2023-11-19T01:01:13;12.90;99.90
58582;DHT22;44361;51.476;5.700;2023-11-19T01:03:38;12.90;99.90
58582;DHT22;44361;51.476;5.700;2023-11-19T01:06:04;12.90;99.90
58582;DHT22;44361;51.476;5.700;2023-11-19T01:08:30;12.90;99.90
58582;DHT22;44361;51.476;5.700;2023-11-19T01:10:55;12.90;99.90
58582;DHT22;44361;51.476;5.700;2023-11-19T01:13:21;12.90;99.90
58582;DHT22;44361;51.476;5.700;2023-11-19T01:15:47;12.90;99.90
58582;DHT22;44361;51.476;5.700;2023-11-19T01:18:13;12.90;99.90
58582;DHT22;44361;51.476;5.700;2023-11-19T01:20:39;12.90;99.90
58582;DHT22;44361;51.476;5.700;2023-11-19T01:23:04;12.90;99.90
58582;DHT22;44361;51.476;5.700;2023-11-19T01:25:30;13.00;99.90
58582;DHT22;44361;51.476;5.700;2023-11-19T01:27:56;12.90;99.90
58582;DHT22;44361;51.476;5.700;2023-11-19T01:30:24;12.80;99.90
58582;DHT22;44361;51.476;5.700;2023-11-19T01:32:50;12.90;99.90
58582;DHT22;44361;51.476;5.700;2023-11-19T01:35:15;12.80;99.90
58582;DHT22;44361;51.476;5.700;2023-11-19T01:37:41;12.80;99.90
58582;DHT22;44361;51.476;5.700;2023-11-19T01:40:06;12.80;99.90
58582;DHT22;44361;51.476;5.700;2023-11-19T01:42:40;12.80;99.90
58582;DHT22;44361;51.476;5.700;2023-11-19T01:45:06;12.80;99.90
58582;DHT22;44361;51.476;5.700;2023-11-19T01:47:33;12.80;99.90
58582;DHT22;44361;51.476;5.700;2023-11-19T01:50:00;12.80;99.90
58582;DHT22;44361;51.476;5.700;2023-11-19T01:52:27;12.70;99.90
58582;DHT22;44361;51.476;5.700;2023-11-19T01:54:53;12.80;99.90
58582;DHT22;44361;51.476;5.700;2023-11-19T01:57:21;12.80;99.90
58582;DHT22;44361;51.476;5.700;2023-11-19T01:59:49;12.70;99.90
58582;DHT22;44361;51.476;5.700;2023-11-19T02:02:16;12.80;99.90
58582;DHT22;44361;51.476;5.700;2023-11-19T02:04:46;12.80;99.90
58582;DHT22;44361;51.476;5.700;2023-11-19T02:07:13;12.80;99.90
58582;DHT22;44361;51.476;5.700;2023-11-19T02:09:42;12.90;99.90
58582;DHT22;44361;51.476;5.700;2023-11-19T02:12:08;12.80;99.90
58582;DHT22;44361;51.476;5.700;2023-11-19T02:14:34;12.80;99.90
58582;DHT22;44361;51.476;5.700;2023-11-19T02:17:00;12.80;99.90
58582;DHT22;44361;51.476;5.700;2023-11-19T02:19:26;12.70;99.90
58582;DHT22;44361;51.476;5.700;2023-11-19T02:21:51;12.80;99.90
58582;DHT22;44361;51.476;5.700;2023-11-19T02:24:19;12.70;99.90
58582;DHT22;44361;51.476;5.700;2023-11-19T02:27:02;12.60;99.90
58582;DHT22;44361;51.476;5.700;2023-11-19T02:29:28;12.50;99.90
58582;DHT22;44361;51.476;5.700;2023-11-19T02:31:54;12.50;99.90
58582;DHT22;44361;51.476;5.700;2023-11-19T02:34:20;12.40;99.90
58582;DHT22;44361;51.476;5.700;2023-11-19T02:36:47;12.40;99.90
58582;DHT22;44361;51.476;5.700;2023-11-19T02:39:13;12.40;99.90
58582;DHT22;44361;51.476;5.700;2023-11-19T02:41:38;12.30;99.90
58582;DHT22;44361;51.476;5.700;2023-11-19T02:44:06;12.30;99.90
58582;DHT22;44361;51.476;5.700;2023-11-19T02:46:31;12.20;99.90
58582;DHT22;44361;51.476;5.700;2023-11-19T02:48:57;12.20;99.90
58582;DHT22;44361;51.476;5.700;2023-11-19T02:51:23;12.20;99.90
58582;DHT22;44361;51.476;5.700;2023-11-19T02:53:49;12.10;99.90
58582;DHT22;44361;51.476;5.700;2023-11-19T02:56:14;12.10;99.90
58582;DHT22;44361;51.476;5.700;2023-11-19T02:58:51;12.10;99.90
58582;DHT22;44361;51.476;5.700;2023-11-19T03:01:24;12.10;99.90
58582;DHT22;44361;51.476;5.700;2023-11-19T03:03:58;12.10;99.90
58582;DHT22;44361;51.476;5.700;2023-11-19T03:06:24;12.10;99.90
58582;DHT22;44361;51.476;5.700;2023-11-19T03:08:50;12.00;99.90
58582;DHT22;44361;51.476;5.700;2023-11-19T03:11:16;12.00;99.90
58582;DHT22;44361;51.476;5.700;2023-11-19T03:13:41;11.90;99.90
58582;DHT22;44361;51.476;5.700;2023-11-19T03:16:07;11.90;99.90
58582;DHT22;44361;51.476;5.700;2023-11-19T03:18:33;11.90;99.90
58582;DHT22;44361;51.476;5.700;2023-11-19T03:20:59;11.80;99.90
58582;DHT22;44361;51.476;5.700;2023-11-19T03:23:25;11.80;99.90
58582;DHT22;44361;51.476;5.700;2023-11-19T03:25:53;11.70;99.90
58582;DHT22;44361;51.476;5.700;2023-11-19T03:28:19;11.70;99.90
58582;DHT22;44361;51.476;5.700;2023-11-19T03:30:44;11.70;99.90
58582;DHT22;44361;51.476;5.700;2023-11-19T03:33:10;11.70;99.90
58582;DHT22;44361;51.476;5.700;2023-11-19T03:35:35;11.60;99.90
58582;DHT22;44361;51.476;5.700;2023-11-19T03:38:01;11.60;99.90
58582;DHT22;44361;51.476;5.700;2023-11-19T03:40:27;11.70;99.90
58582;DHT22;44361;51.476;5.700;2023-11-19T03:42:53;11.80;99.90
58582;DHT22;44361;51.476;5.700;2023-11-19T03:45:18;11.70;99.90
58582;DHT22;44361;51.476;5.700;2023-11-19T03:47:44;11.80;99.90
58582;DHT22;44361;51.476;5.700;2023-11-19T03:50:09;11.70;99.90
58582;DHT22;44361;51.476;5.700;2023-11-19T03:52:36;11.70;99.90
58582;DHT22;44361;51.476;5.700;2023-11-19T03:55:01;11.80;99.90
58582;DHT22;44361;51.476;5.700;2023-11-19T03:57:29;11.80;99.90
58582;DHT22;44361;51.476;5.700;2023-11-19T03:59:54;11.80;99.90
58582;DHT22;44361;51.476;5.700;2023-11-19T04:02:21;11.70;99.90
58582;DHT22;44361;51.476;5.700;2023-11-19T04:04:47;11.70;99.90
58582;DHT22;44361;51.476;5.700;2023-11-19T04:07:13;11.70;99.90
58582;DHT22;44361;51.476;5.700;2023-11-19T04:09:39;11.70;99.90
58582;DHT22;44361;51.476;5.700;2023-11-19T04:12:05;11.60;99.90
58582;DHT22;44361;51.476;5.700;2023-11-19T04:14:30;11.60;99.90
58582;DHT22;44361;51.476;5.700;2023-11-19T04:16:56;11.70;99.90
58582;DHT22;44361;51.476;5.700;2023-11-19T04:19:22;11.60;99.90
58582;DHT22;44361;51.476;5.700;2023-11-19T04:21:47;11.70;99.90
58582;DHT22;44361;51.476;5.700;2023-11-19T04:24:13;11.60;99.90
58582;DHT22;44361;51.476;5.700;2023-11-19T04:26:43;11.50;99.90
58582;DHT22;44361;51.476;5.700;2023-11-19T04:29:11;11.60;99.90
58582;DHT22;44361;51.476;5.700;2023-11-19T04:31:37;11.60;99.90
58582;DHT22;44361;51.476;5.700;2023-11-19T04:34:03;11.70;99.90
58582;DHT22;44361;51.476;5.700;2023-11-19T04:36:29;11.70;99.90
58582;DHT22;44361;51.476;5.700;2023-11-19T04:38:55;11.80;99.90
58582;DHT22;44361;51.476;5.700;2023-11-19T04:41:20;11.90;99.90
58582;DHT22;44361;51.476;5.700;2023-11-19T04:43:46;12.00;99.90
58582;DHT22;44361;51.476;5.700;2023-11-19T04:46:12;12.00;99.90
58582;DHT22;44361;51.476;5.700;2023-11-19T04:48:37;11.90;99.90
58582;DHT22;44361;51.476;5.700;2023-11-19T04:51:05;11.80;99.90
58582;DHT22;44361;51.476;5.700;2023-11-19T04:53:30;11.80;99.90
58582;DHT22;44361;51.476;5.700;2023-11-19T04:55:56;11.70;99.90
58582;DHT22;44361;51.476;5.700;2023-11-19T04:58:21;11.70;99.90
58582;DHT22;44361;51.476;5.700;2023-11-19T05:00:47;11.70;99.90
58582;DHT22;44361;51.476;5.700;2023-11-19T05:03:13;11.70;99.90
58582;DHT22;44361;51.476;5.700;2023-11-19T05:05:39;11.60;99.90
58582;DHT22;44361;51.476;5.700;2023-11-19T05:08:04;11.50;99.90
58582;DHT22;44361;51.476;5.700;2023-11-19T05:10:30;11.50;99.90
58582;DHT22;44361;51.476;5.700;2023-11-19T05:12:56;11.40;99.90
58582;DHT22;44361;51.476;5.700;2023-11-19T05:15:22;11.40;99.90
58582;DHT22;44361;51.476;5.700;2023-11-19T05:17:47;11.30;99.90
58582;DHT22;44361;51.476;5.700;2023-11-19T05:20:13;11.40;99.90
58582;DHT22;44361;51.476;5.700;2023-11-19T05:22:40;11.40;99.90
58582;DHT22;44361;51.476;5.700;2023-11-19T05:25:06;11.40;99.90
58582;DHT22;44361;51.476;5.700;2023-11-19T05:27:32;11.40;99.90
58582;DHT22;44361;51.476;5.700;2023-11-19T05:29:58;11.50;99.90
58582;DHT22;44361;51.476;5.700;2023-11-19T05:32:23;11.40;99.90
58582;DHT22;44361;51.476;5.700;2023-11-19T05:34:49;11.40;99.90
58582;DHT22;44361;51.476;5.700;2023-11-19T05:37:14;11.40;99.90
58582;DHT22;44361;51.476;5.700;2023-11-19T05:39:40;11.40;99.90
58582;DHT22;44361;51.476;5.700;2023-11-19T05:42:05;11.40;99.90
58582;DHT22;44361;51.476;5.700;2023-11-19T05:44:31;11.40;99.90
58582;DHT22;44361;51.476;5.700;2023-11-19T05:46:56;11.40;99.90
58582;DHT22;44361;51.476;5.700;2023-11-19T05:49:22;11.30;99.90
58582;DHT22;44361;51.476;5.700;2023-11-19T05:51:47;11.20;99.90
58582;DHT22;44361;51.476;5.700;2023-11-19T05:54:13;11.30;99.90
58582;DHT22;44361;51.476;5.700;2023-11-19T05:56:39;11.30;99.90
58582;DHT22;44361;51.476;5.700;2023-11-19T05:59:04;11.20;99.90
58582;DHT22;44361;51.476;5.700;2023-11-19T06:01:34;11.20;99.90
58582;DHT22;44361;51.476;5.700;2023-11-19T06:04:00;11.20;99.90
58582;DHT22;44361;51.476;5.700;2023-11-19T06:06:26;11.10;99.90
58582;DHT22;44361;51.476;5.700;2023-11-19T06:08:52;11.10;99.90
58582;DHT22;44361;51.476;5.700;2023-11-19T06:11:17;11.10;99.90
58582;DHT22;44361;51.476;5.700;2023-11-19T06:13:45;11.10;99.90
58582;DHT22;44361;51.476;5.700;2023-11-19T06:16:11;11.10;99.90
58582;DHT22;44361;51.476;5.700;2023-11-19T06:18:37;11.10;99.90
58582;DHT22;44361;51.476;5.700;2023-11-19T06:21:03;11.00;99.90
58582;DHT22;44361;51.476;5.700;2023-11-19T06:23:28;11.00;99.90
58582;DHT22;44361;51.476;5.700;2023-11-19T06:25:54;11.10;99.90
58582;DHT22;44361;51.476;5.700;2023-11-19T06:28:20;11.10;99.90
58582;DHT22;44361;51.476;5.700;2023-11-19T06:30:45;11.00;99.90
58582;DHT22;44361;51.476;5.700;2023-11-19T06:33:14;11.00;99.90
58582;DHT22;44361;51.476;5.700;2023-11-19T06:35:40;11.00;99.90
58582;DHT22;44361;51.476;5.700;2023-11-19T06:38:05;11.00;99.90
58582;DHT22;44361;51.476;5.700;2023-11-19T06:40:32;10.90;99.90
58582;DHT22;44361;51.476;5.700;2023-11-19T06:42:58;10.90;99.90
58582;DHT22;44361;51.476;5.700;2023-11-19T06:45:24;10.90;99.90
58582;DHT22;44361;51.476;5.700;2023-11-19T06:47:49;10.90;99.90
58582;DHT22;44361;51.476;5.700;2023-11-19T06:50:15;10.80;99.90
58582;DHT22;44361;51.476;5.700;2023-11-19T06:52:41;10.70;99.90
58582;DHT22;44361;51.476;5.700;2023-11-19T06:55:07;10.70;99.90
58582;DHT22;44361;51.476;5.700;2023-11-19T06:57:33;10.70;99.90
58582;DHT22;44361;51.476;5.700;2023-11-19T06:59:59;10.70;99.90
58582;DHT22;44361;51.476;5.700;2023-11-19T07:02:25;10.70;99.90
58582;DHT22;44361;51.476;5.700;2023-11-19T07:04:51;10.70;99.90
58582;DHT22;44361;51.476;5.700;2023-11-19T07:07:16;10.70;99.90
58582;DHT22;44361;51.476;5.700;2023-11-19T07:09:42;10.70;99.90
58582;DHT22;44361;51.476;5.700;2023-11-19T07:12:08;10.70;99.90
58582;DHT22;44361;51.476;5.700;2023-11-19T07:14:34;10.70;99.90
58582;DHT22;44361;51.476;5.700;2023-11-19T07:16:59;10.70;99.90
58582;DHT22;44361;51.476;5.700;2023-11-19T07:19:25;10.70;99.90
58582;DHT22;44361;51.476;5.700;2023-11-19T07:21:51;10.70;99.90
58582;DHT22;44361;51.476;5.700;2023-11-19T07:24:20;10.80;99.90
58582;DHT22;44361;51.476;5.700;2023-11-19T07:26:47;10.70;99.90
58582;DHT22;44361;51.476;5.700;2023-11-19T07:29:13;10.80;99.90
58582;DHT22;44361;51.476;5.700;2023-11-19T07:31:39;10.70;99.90
58582;DHT22;44361;51.476;5.700;2023-11-19T07:34:05;10.70;99.90
58582;DHT22;44361;51.476;5.700;2023-11-19T07:36:32;10.70;99.90
58582;DHT22;44361;51.476;5.700;2023-11-19T07:38:58;10.70;99.90
58582;DHT22;44361;51.476;5.700;2023-11-19T07:41:24;10.70;99.90
58582;DHT22;44361;51.476;5.700;2023-11-19T07:43:51;10.70;99.90
58582;DHT22;44361;51.476;5.700;2023-11-19T07:46:17;10.90;99.90
58582;DHT22;44361;51.476;5.700;2023-11-19T07:48:45;10.80;99.90
58582;DHT22;44361;51.476;5.700;2023-11-19T07:51:12;10.90;99.90
58582;DHT22;44361;51.476;5.700;2023-11-19T07:53:38;10.90;99.90
58582;DHT22;44361;51.476;5.700;2023-11-19T07:56:05;10.90;99.90
58582;DHT22;44361;51.476;5.700;2023-11-19T07:58:30;10.90;99.90
58582;DHT22;44361;51.476;5.700;2023-11-19T08:00:56;10.80;99.90
58582;DHT22;44361;51.476;5.700;2023-11-19T08:03:22;10.90;99.90
58582;DHT22;44361;51.476;5.700;2023-11-19T08:05:48;10.90;99.90
58582;DHT22;44361;51.476;5.700;2023-11-19T08:08:14;10.90;99.90
58582;DHT22;44361;51.476;5.700;2023-11-19T08:10:40;11.00;99.90
58582;DHT22;44361;51.476;5.700;2023-11-19T08:13:06;11.00;99.90
58582;DHT22;44361;51.476;5.700;2023-11-19T08:15:32;11.00;99.90
58582;DHT22;44361;51.476;5.700;2023-11-19T08:17:57;11.10;99.90
58582;DHT22;44361;51.476;5.700;2023-11-19T08:20:23;11.20;99.90
58582;DHT22;44361;51.476;5.700;2023-11-19T08:22:49;11.20;99.90
58582;DHT22;44361;51.476;5.700;2023-11-19T08:25:14;11.20;99.90
58582;DHT22;44361;51.476;5.700;2023-11-19T08:27:40;11.20;99.90
58582;DHT22;44361;51.476;5.700;2023-11-19T08:30:06;11.30;99.90
58582;DHT22;44361;51.476;5.700;2023-11-19T08:32:32;11.30;99.90
58582;DHT22;44361;51.476;5.700;2023-11-19T08:34:58;11.40;99.90
58582;DHT22;44361;51.476;5.700;2023-11-19T08:37:24;11.40;99.90
58582;DHT22;44361;51.476;5.700;2023-11-19T08:39:50;11.40;99.90
58582;DHT22;44361;51.476;5.700;2023-11-19T08:42:19;11.40;99.90
58582;DHT22;44361;51.476;5.700;2023-11-19T08:44:49;11.50;99.90
58582;DHT22;44361;51.476;5.700;2023-11-19T08:47:16;11.60;99.90
58582;DHT22;44361;51.476;5.700;2023-11-19T08:49:43;11.60;99.90
58582;DHT22;44361;51.476;5.700;2023-11-19T08:52:09;11.70;99.90
58582;DHT22;44361;51.476;5.700;2023-11-19T08:54:36;11.80;99.90
58582;DHT22;44361;51.476;5.700;2023-11-19T08:57:02;11.90;99.90
58582;DHT22;44361;51.476;5.700;2023-11-19T08:59:28;12.00;99.90
58582;DHT22;44361;51.476;5.700;2023-11-19T09:01:54;12.10;99.90
58582;DHT22;44361;51.476;5.700;2023-11-19T09:04:20;12.00;99.90
58582;DHT22;44361;51.476;5.700;2023-11-19T09:06:48;12.00;99.90
58582;DHT22;44361;51.476;5.700;2023-11-19T09:09:14;12.00;99.90
58582;DHT22;44361;51.476;5.700;2023-11-19T09:11:39;12.10;99.90
58582;DHT22;44361;51.476;5.700;2023-11-19T09:14:05;12.20;99.90
58582;DHT22;44361;51.476;5.700;2023-11-19T09:16:31;12.30;99.90
58582;DHT22;44361;51.476;5.700;2023-11-19T09:18:57;12.50;99.90
58582;DHT22;44361;51.476;5.700;2023-11-19T09:21:27;12.60;99.90
58582;DHT22;44361;51.476;5.700;2023-11-19T09:23:55;12.60;99.90
58582;DHT22;44361;51.476;5.700;2023-11-19T09:26:20;12.50;99.90
58582;DHT22;44361;51.476;5.700;2023-11-19T09:28:46;12.40;99.90
58582;DHT22;44361;51.476;5.700;2023-11-19T09:31:15;12.40;99.90
58582;DHT22;44361;51.476;5.700;2023-11-19T09:33:41;12.40;99.90
58582;DHT22;44361;51.476;5.700;2023-11-19T09:36:07;12.50;99.90
58582;DHT22;44361;51.476;5.700;2023-11-19T09:38:33;12.50;99.90
58582;DHT22;44361;51.476;5.700;2023-11-19T09:40:59;12.60;99.90
58582;DHT22;44361;51.476;5.700;2023-11-19T09:43:27;12.70;99.90
58582;DHT22;44361;51.476;5.700;2023-11-19T09:45:55;12.70;99.90
58582;DHT22;44361;51.476;5.700;2023-11-19T09:48:21;12.70;99.90
58582;DHT22;44361;51.476;5.700;2023-11-19T09:50:50;12.60;99.90
58582;DHT22;44361;51.476;5.700;2023-11-19T09:53:17;12.60;99.90
58582;DHT22;44361;51.476;5.700;2023-11-19T09:55:42;12.60;99.90
58582;DHT22;44361;51.476;5.700;2023-11-19T09:58:09;12.60;99.90
58582;DHT22;44361;51.476;5.700;2023-11-19T10:00:37;12.70;99.90
58582;DHT22;44361;51.476;5.700;2023-11-19T10:03:04;12.80;99.90
58582;DHT22;44361;51.476;5.700;2023-11-19T10:05:31;12.90;99.90
58582;DHT22;44361;51.476;5.700;2023-11-19T10:07:56;13.10;99.90
58582;DHT22;44361;51.476;5.700;2023-11-19T10:10:22;13.30;99.90
58582;DHT22;44361;51.476;5.700;2023-11-19T10:12:51;13.40;99.90
58582;DHT22;44361;51.476;5.700;2023-11-19T10:15:21;13.70;99.90
58582;DHT22;44361;51.476;5.700;2023-11-19T10:17:50;13.70;99.90
58582;DHT22;44361;51.476;5.700;2023-11-19T10:20:16;13.90;99.90
58582;DHT22;44361;51.476;5.700;2023-11-19T10:22:42;13.80;99.90
58582;DHT22;44361;51.476;5.700;2023-11-19T10:25:28;13.80;99.90
58582;DHT22;44361;51.476;5.700;2023-11-19T10:27:55;13.70;99.90
58582;DHT22;44361;51.476;5.700;2023-11-19T10:30:30;13.80;99.90
58582;DHT22;44361;51.476;5.700;2023-11-19T10:33:09;13.90;99.90
58582;DHT22;44361;51.476;5.700;2023-11-19T10:35:55;13.90;99.90
58582;DHT22;44361;51.476;5.700;2023-11-19T10:38:24;13.80;99.90
58582;DHT22;44361;51.476;5.700;2023-11-19T10:40:51;13.80;99.90
58582;DHT22;44361;51.476;5.700;2023-11-19T10:43:18;13.90;99.90
58582;DHT22;44361;51.476;5.700;2023-11-19T10:45:44;13.90;99.90
58582;DHT22;44361;51.476;5.700;2023-11-19T10:48:09;13.80;99.90
58582;DHT22;44361;51.476;5.700;2023-11-19T10:50:40;13.80;99.90
58582;DHT22;44361;51.476;5.700;2023-11-19T10:53:07;13.70;99.90
58582;DHT22;44361;51.476;5.700;2023-11-19T10:55:38;13.80;99.90
58582;DHT22;44361;51.476;5.700;2023-11-19T10:58:05;13.70;99.90
58582;DHT22;44361;51.476;5.700;2023-11-19T11:00:43;13.60;99.90
58582;DHT22;44361;51.476;5.700;2023-11-19T11:03:21;13.60;99.90
58582;DHT22;44361;51.476;5.700;2023-11-19T11:05:49;13.60;99.90
58582;DHT22;44361;51.476;5.700;2023-11-19T11:08:15;13.60;99.90
58582;DHT22;44361;51.476;5.700;2023-11-19T11:10:47;13.60;99.90
58582;DHT22;44361;51.476;5.700;2023-11-19T11:13:13;13.60;99.90
58582;DHT22;44361;51.476;5.700;2023-11-19T11:15:39;13.60;99.90
58582;DHT22;44361;51.476;5.700;2023-11-19T11:18:09;13.60;99.90
58582;DHT22;44361;51.476;5.700;2023-11-19T11:20:35;13.60;99.90
58582;DHT22;44361;51.476;5.700;2023-11-19T11:26:11;13.60;99.90
58582;DHT22;44361;51.476;5.700;2023-11-19T11:29:03;13.70;99.90
58582;DHT22;44361;51.476;5.700;2023-11-19T11:31:37;13.70;99.90
58582;DHT22;44361;51.476;5.700;2023-11-19T11:36:37;13.60;99.90
58582;DHT22;44361;51.476;5.700;2023-11-19T11:39:07;13.50;99.90
58582;DHT22;44361;51.476;5.700;2023-11-19T11:41:33;13.40;99.90
58582;DHT22;44361;51.476;5.700;2023-11-19T11:43:58;13.20;99.90
58582;DHT22;44361;51.476;5.700;2023-11-19T11:49:06;13.00;99.90
58582;DHT22;44361;51.476;5.700;2023-11-19T11:54:10;13.00;99.90
58582;DHT22;44361;51.476;5.700;2023-11-19T11:56:39;12.90;99.90
58582;DHT22;44361;51.476;5.700;2023-11-19T11:59:20;12.80;99.90
58582;DHT22;44361;51.476;5.700;2023-11-19T12:01:58;12.70;99.90
58582;DHT22;44361;51.476;5.700;2023-11-19T12:04:26;12.70;99.90
58582;DHT22;44361;51.476;5.700;2023-11-19T12:07:07;12.70;99.90
58582;DHT22;44361;51.476;5.700;2023-11-19T12:09:33;12.70;99.90
58582;DHT22;44361;51.476;5.700;2023-11-19T12:20:06;12.90;99.90
58582;DHT22;44361;51.476;5.700;2023-11-19T12:22:38;12.90;99.90
58582;DHT22;44361;51.476;5.700;2023-11-19T12:25:06;12.90;99.90
58582;DHT22;44361;51.476;5.700;2023-11-19T12:27:32;12.90;99.90
58582;DHT22;44361;51.476;5.700;2023-11-19T12:29:59;13.00;99.90
58582;DHT22;44361;51.476;5.700;2023-11-19T12:32:25;13.00;99.90
58582;DHT22;44361;51.476;5.700;2023-11-19T12:34:51;13.00;99.90
58582;DHT22;44361;51.476;5.700;2023-11-19T12:37:16;13.00;99.90
58582;DHT22;44361;51.476;5.700;2023-11-19T12:39:42;13.00;99.90
58582;DHT22;44361;51.476;5.700;2023-11-19T12:42:08;13.10;99.90
58582;DHT22;44361;51.476;5.700;2023-11-19T12:44:34;13.10;99.90
58582;DHT22;44361;51.476;5.700;2023-11-19T12:47:05;13.20;99.90
58582;DHT22;44361;51.476;5.700;2023-11-19T12:49:32;13.10;99.90
58582;DHT22;44361;51.476;5.700;2023-11-19T12:51:58;13.20;99.90
58582;DHT22;44361;51.476;5.700;2023-11-19T12:54:37;13.20;99.90
58582;DHT22;44361;51.476;5.700;2023-11-19T12:57:03;13.20;99.90
58582;DHT22;44361;51.476;5.700;2023-11-19T12:59:30;13.20;99.90
58582;DHT22;44361;51.476;5.700;2023-11-19T13:01:57;13.30;99.90
58582;DHT22;44361;51.476;5.700;2023-11-19T13:04:23;13.30;99.90
58582;DHT22;44361;51.476;5.700;2023-11-19T13:06:53;13.30;99.90
58582;DHT22;44361;51.476;5.700;2023-11-19T13:09:28;13.30;99.90
58582;DHT22;44361;51.476;5.700;2023-11-19T13:11:55;13.20;99.90
58582;DHT22;44361;51.476;5.700;2023-11-19T13:14:21;13.30;99.90
58582;DHT22;44361;51.476;5.700;2023-11-19T13:16:47;13.20;99.90
58582;DHT22;44361;51.476;5.700;2023-11-19T13:19:16;13.10;99.90
58582;DHT22;44361;51.476;5.700;2023-11-19T13:21:44;13.20;99.90
58582;DHT22;44361;51.476;5.700;2023-11-19T13:24:12;13.00;99.90
58582;DHT22;44361;51.476;5.700;2023-11-19T13:26:38;12.90;99.90
58582;DHT22;44361;51.476;5.700;2023-11-19T13:29:04;12.70;99.90
58582;DHT22;44361;51.476;5.700;2023-11-19T13:31:29;12.50;99.90
58582;DHT22;44361;51.476;5.700;2023-11-19T13:33:55;12.50;99.90
58582;DHT22;44361;51.476;5.700;2023-11-19T13:36:22;12.50;99.90
58582;DHT22;44361;51.476;5.700;2023-11-19T13:38:47;12.50;99.90
58582;DHT22;44361;51.476;5.700;2023-11-19T13:41:13;12.70;99.90
58582;DHT22;44361;51.476;5.700;2023-11-19T13:43:39;12.80;99.90
58582;DHT22;44361;51.476;5.700;2023-11-19T13:46:05;12.70;99.90
58582;DHT22;44361;51.476;5.700;2023-11-19T13:48:31;12.70;99.90
58582;DHT22;44361;51.476;5.700;2023-11-19T13:50:56;12.60;99.90
58582;DHT22;44361;51.476;5.700;2023-11-19T13:53:22;12.50;99.90
58582;DHT22;44361;51.476;5.700;2023-11-19T13:55:51;12.40;99.90
58582;DHT22;44361;51.476;5.700;2023-11-19T13:58:16;12.40;99.90
58582;DHT22;44361;51.476;5.700;2023-11-19T14:00:42;12.20;99.90
58582;DHT22;44361;51.476;5.700;2023-11-19T14:03:09;12.20;99.90
58582;DHT22;44361;51.476;5.700;2023-11-19T14:05:37;12.10;99.90
58582;DHT22;44361;51.476;5.700;2023-11-19T14:08:03;12.20;99.90
58582;DHT22;44361;51.476;5.700;2023-11-19T14:10:28;12.30;99.90
58582;DHT22;44361;51.476;5.700;2023-11-19T14:12:54;12.30;99.90
58582;DHT22;44361;51.476;5.700;2023-11-19T14:15:20;12.40;99.90
58582;DHT22;44361;51.476;5.700;2023-11-19T14:17:45;12.30;99.90
58582;DHT22;44361;51.476;5.700;2023-11-19T14:20:11;12.20;99.90
58582;DHT22;44361;51.476;5.700;2023-11-19T14:22:43;12.20;99.90
58582;DHT22;44361;51.476;5.700;2023-11-19T14:25:10;12.20;99.90
58582;DHT22;44361;51.476;5.700;2023-11-19T14:27:40;12.30;99.90
58582;DHT22;44361;51.476;5.700;2023-11-19T14:30:07;12.20;99.90
58582;DHT22;44361;51.476;5.700;2023-11-19T14:32:35;12.20;99.90
58582;DHT22;44361;51.476;5.700;2023-11-19T14:35:01;12.30;99.90
58582;DHT22;44361;51.476;5.700;2023-11-19T14:37:26;12.20;99.90
58582;DHT22;44361;51.476;5.700;2023-11-19T14:39:52;12.20;99.90
58582;DHT22;44361;51.476;5.700;2023-11-19T14:42:17;12.10;99.90
58582;DHT22;44361;51.476;5.700;2023-11-19T14:44:43;12.00;99.90
58582;DHT22;44361;51.476;5.700;2023-11-19T14:47:09;11.90;99.90
58582;DHT22;44361;51.476;5.700;2023-11-19T14:49:35;11.90;99.90
58582;DHT22;44361;51.476;5.700;2023-11-19T14:52:03;11.90;99.90
58582;DHT22;44361;51.476;5.700;2023-11-19T14:54:28;11.90;99.90
58582;DHT22;44361;51.476;5.700;2023-11-19T14:56:54;11.90;99.90
58582;DHT22;44361;51.476;5.700;2023-11-19T14:59:20;11.80;99.90
58582;DHT22;44361;51.476;5.700;2023-11-19T15:01:45;11.90;99.90
58582;DHT22;44361;51.476;5.700;2023-11-19T15:04:11;11.90;99.90
58582;DHT22;44361;51.476;5.700;2023-11-19T15:06:37;11.90;99.90
58582;DHT22;44361;51.476;5.700;2023-11-19T15:09:04;11.90;99.90
58582;DHT22;44361;51.476;5.700;2023-11-19T15:11:29;11.90;99.90
58582;DHT22;44361;51.476;5.700;2023-11-19T15:13:55;11.80;99.90
58582;DHT22;44361;51.476;5.700;2023-11-19T15:16:21;11.70;99.90
58582;DHT22;44361;51.476;5.700;2023-11-19T15:18:57;11.60;99.90
58582;DHT22;44361;51.476;5.700;2023-11-19T15:21:27;11.60;99.90
58582;DHT22;44361;51.476;5.700;2023-11-19T15:23:57;11.60;99.90
58582;DHT22;44361;51.476;5.700;2023-11-19T15:26:22;11.50;99.90
58582;DHT22;44361;51.476;5.700;2023-11-19T15:28:48;11.40;99.90
58582;DHT22;44361;51.476;5.700;2023-11-19T15:31:14;11.40;99.90
58582;DHT22;44361;51.476;5.700;2023-11-19T15:33:41;11.40;99.90
58582;DHT22;44361;51.476;5.700;2023-11-19T15:36:07;11.30;99.90
58582;DHT22;44361;51.476;5.700;2023-11-19T15:38:36;11.30;99.90
58582;DHT22;44361;51.476;5.700;2023-11-19T15:41:02;11.30;99.90
58582;DHT22;44361;51.476;5.700;2023-11-19T15:43:28;11.30;99.90
58582;DHT22;44361;51.476;5.700;2023-11-19T15:45:54;11.20;99.90